Time;durP1;ratioP1;P1;durP2;ratioP2;P2;SDS_P1;SDS_P2;PMS_P1;PMS_P2;Temp;Humidity;BMP_temperature;BMP_pressure;BME280_temperature;BME280_humidity;BME280_pressure;Samples;Min_cycle;Max_cycle;Signal;HPM_P1;HPM_P2
2021/05/21 14:37:42;;;;;;;1.70;1.60;;;29.60;21.50;;;;;;5107301;23;20045;-87
2021/05/21 14:40:09;;;;;;;4.15;1.70;;;29.60;21.70;;;;;;4918846;28;20054;-88
2021/05/21 14:42:37;;;;;;;5.15;2.15;;;29.60;21.60;;;;;;4944862;28;20057;-88
2021/05/21 14:45:10;;;;;;;6.03;2.08;;;29.60;21.60;;;;;;4935489;28;20034;-91
2021/05/21 14:47:38;;;;;;;5.72;2.58;;;29.50;21.70;;;;;;4945366;28;20038;-91
2021/05/21 14:50:09;;;;;;;5.05;1.80;;;29.50;21.90;;;;;;4920232;28;20045;-90
2021/05/21 14:52:36;;;;;;;5.20;1.70;;;29.50;22.40;;;;;;4927911;28;20049;-87
2021/05/21 14:55:08;;;;;;;3.15;1.70;;;29.50;22.20;;;;;;4950216;28;20049;-88
2021/05/21 14:57:34;;;;;;;4.05;1.80;;;29.50;22.20;;;;;;4928984;28;20129;-91
2021/05/21 15:00:06;;;;;;;4.00;1.60;;;29.50;22.10;;;;;;4888496;28;20424;-89
2021/05/21 15:02:36;;;;;;;4.50;1.73;;;29.50;22.20;;;;;;4935048;28;20108;-90
2021/05/21 15:05:06;;;;;;;5.75;2.28;;;29.40;22.10;;;;;;4920772;28;20606;-88
2021/05/21 15:07:32;;;;;;;5.68;2.08;;;29.40;22.00;;;;;;4934944;28;20129;-90
2021/05/21 15:10:01;;;;;;;4.38;2.40;;;29.40;22.00;;;;;;4934798;28;20551;-88
2021/05/21 15:12:29;;;;;;;3.88;2.25;;;29.30;21.90;;;;;;4935182;28;20056;-88
2021/05/21 15:14:59;;;;;;;5.75;2.25;;;29.20;21.90;;;;;;4948313;28;20068;-89
2021/05/21 15:25:45;;;;;;;;;;;29.00;22.00;;;;;;4939030;28;20108;-90
2021/05/21 15:28:12;;;;;;;6.90;2.35;;;29.00;22.10;;;;;;4973860;28;19935;-89
2021/05/21 15:30:50;;;;;;;2.40;1.70;;;29.00;22.00;;;;;;4903714;28;20042;-89
2021/05/21 15:33:16;;;;;;;3.70;1.90;;;29.00;22.00;;;;;;4935854;28;20034;-89
2021/05/21 15:35:43;;;;;;;3.75;1.73;;;28.90;22.30;;;;;;4913470;28;20048;-89
2021/05/21 15:38:10;;;;;;;3.95;2.05;;;28.90;22.50;;;;;;4936561;28;20034;-89
2021/05/21 15:40:37;;;;;;;4.18;1.63;;;28.80;22.50;;;;;;4933575;28;20558;-89
2021/05/21 15:48:30;;;;;;;4.40;1.67;;;28.60;22.50;;;;;;4939390;28;20091;-90
2021/05/21 15:56:40;;;;;;;2.55;1.60;;;28.50;22.40;;;;;;4382844;32;456408;-89
2021/05/21 15:59:09;;;;;;;4.13;1.75;;;28.40;22.30;;;;;;5095649;28;20046;-89
2021/05/21 16:01:39;;;;;;;2.35;1.40;;;28.40;22.50;;;;;;5027432;28;20455;-90
2021/05/21 16:04:05;;;;;;;2.22;1.70;;;28.30;22.70;;;;;;5015438;28;20044;-88
2021/05/21 16:06:32;;;;;;;3.45;1.70;;;28.30;23.00;;;;;;5054167;28;20072;-89
2021/05/21 16:09:00;;;;;;;5.45;1.75;;;28.20;23.20;;;;;;5048761;28;20115;-88
2021/05/21 16:11:31;;;;;;;3.50;1.52;;;28.20;23.40;;;;;;5015344;28;20043;-89
2021/05/21 16:13:59;;;;;;;4.15;2.20;;;28.10;23.50;;;;;;5032520;28;20102;-88
2021/05/21 16:16:26;;;;;;;6.13;2.13;;;28.10;23.70;;;;;;5031247;28;20054;-88
2021/05/21 16:18:56;;;;;;;3.65;2.03;;;28.10;24.00;;;;;;5014164;28;20031;-87
2021/05/21 16:21:25;;;;;;;2.25;2.08;;;28.00;24.10;;;;;;5031745;28;20118;-90
2021/05/21 16:24:01;;;;;;;3.92;2.00;;;28.00;24.20;;;;;;5063102;28;20042;-89
2021/05/21 16:26:29;;;;;;;7.25;2.50;;;27.90;24.20;;;;;;5054909;28;20039;-88
2021/05/21 16:28:56;;;;;;;5.30;2.22;;;28.00;24.40;;;;;;5069123;28;20076;-87
2021/05/21 16:31:23;;;;;;;5.28;2.45;;;27.90;24.30;;;;;;5066355;28;20054;-89
2021/05/21 16:33:49;;;;;;;3.05;2.35;;;27.90;24.40;;;;;;5048594;28;20027;-90
2021/05/21 16:36:16;;;;;;;6.82;2.80;;;28.00;25.60;;;;;;5035543;28;20044;-90
2021/05/21 16:38:43;;;;;;;4.38;2.90;;;27.90;24.60;;;;;;5083572;28;20048;-89
2021/05/21 16:41:16;;;;;;;2.88;2.58;;;27.90;24.70;;;;;;5106633;28;20035;-89
2021/05/21 16:43:44;;;;;;;3.67;2.47;;;27.90;24.80;;;;;;5084608;28;20039;-88
2021/05/21 16:46:12;;;;;;;4.50;2.55;;;27.90;25.00;;;;;;5079315;28;20052;-88
2021/05/21 16:48:38;;;;;;;7.05;2.50;;;27.80;25.10;;;;;;5032277;28;20061;-91
2021/05/21 16:51:07;;;;;;;7.70;2.78;;;27.80;25.40;;;;;;5032795;28;20055;-93
2021/05/21 16:53:38;;;;;;;3.22;2.40;;;27.70;25.50;;;;;;5048860;28;20024;-89
2021/05/21 16:56:10;;;;;;;4.63;2.60;;;27.60;25.70;;;;;;5050121;28;20052;-90
2021/05/21 16:58:36;;;;;;;3.25;2.25;;;27.50;26.10;;;;;;5032395;28;20035;-91
2021/05/21 17:01:04;;;;;;;4.95;2.30;;;27.40;27.40;;;;;;5031857;28;20448;-94
2021/05/21 17:03:30;;;;;;;2.33;2.13;;;27.40;26.70;;;;;;5048120;28;20035;-92
2021/05/21 17:05:57;;;;;;;2.35;2.05;;;27.30;26.90;;;;;;5029069;28;20046;-93
2021/05/21 17:08:24;;;;;;;4.93;2.20;;;27.30;27.10;;;;;;5052620;28;20524;-92
2021/05/21 17:10:52;;;;;;;2.95;2.60;;;27.20;27.20;;;;;;5071178;28;20123;-92
2021/05/21 17:13:20;;;;;;;3.25;2.28;;;27.20;27.30;;;;;;5068835;28;20043;-92
2021/05/21 17:21:19;;;;;;;;;;;27.10;27.70;;;;;;5019353;28;20445;-92
2021/05/21 17:48:29;;;;;;;5.50;3.03;;;26.70;28.70;;;;;;4358052;32;353338;-90
2021/05/21 17:53:32;;;;;;;3.30;2.75;;;26.70;28.90;;;;;;5036408;28;20108;-92
2021/05/21 18:01:52;;;;;;;4.55;2.70;;;26.50;28.90;;;;;;5059123;28;20050;-89
2021/05/21 18:07:13;;;;;;;5.53;2.63;;;26.40;29.00;;;;;;5058845;28;20035;-90
2021/05/21 18:09:46;;;;;;;4.10;2.90;;;26.40;28.90;;;;;;5039028;28;20280;-90
2021/05/21 18:42:35;;;;;;;3.50;1.92;;;26.40;27.50;;;;;;5075297;28;20050;-89
2021/05/21 18:45:42;;;;;;;3.15;1.48;;;26.50;27.40;;;;;;5081883;28;20040;-89
2021/05/21 19:03:37;;;;;;;3.10;1.42;;;26.80;26.50;;;;;;4352943;32;494386;-91
2021/05/21 19:06:05;;;;;;;3.60;1.50;;;26.80;26.60;;;;;;5084069;28;20513;-92
2021/05/21 19:08:39;;;;;;;2.83;1.50;;;26.70;26.70;;;;;;5088787;28;20039;-90
2021/05/21 19:13:55;;;;;;;;;;;26.70;26.90;;;;;;5047852;28;20044;-89
2021/05/21 19:16:26;;;;;;;3.30;1.58;;;26.70;26.90;;;;;;5054465;28;19928;-91
2021/05/21 19:18:55;;;;;;;2.05;1.52;;;26.80;27.00;;;;;;5047552;28;20536;-89
2021/05/21 19:21:30;;;;;;;2.80;1.83;;;26.80;27.10;;;;;;5048979;28;20032;-89
2021/05/21 19:23:56;;;;;;;2.47;1.50;;;26.70;27.10;;;;;;5047583;28;20039;-89
2021/05/21 19:26:23;;;;;;;5.03;1.80;;;26.70;27.40;;;;;;5051759;28;20034;-89
2021/05/21 19:31:39;;;;;;;2.90;1.65;;;26.40;27.70;;;;;;5030888;28;19939;-91
2021/05/21 19:39:37;;;;;;;2.08;1.52;;;26.40;27.90;;;;;;5030178;28;20033;-86
2021/05/21 19:58:45;;;;;;;4.97;1.50;;;26.30;28.00;;;;;;4998700;28;20461;-90
2021/05/21 20:03:58;;;;;;;5.38;1.42;;;26.30;27.90;;;;;;4981419;28;20047;-90
2021/05/21 20:06:38;;;;;;;6.15;1.25;;;26.30;27.90;;;;;;4982177;28;20044;-88
2021/05/21 20:11:59;;;;;;;4.32;1.40;;;26.30;27.70;;;;;;5010189;28;20121;-90
2021/05/21 20:14:28;;;;;;;1.65;0.82;;;26.40;27.80;;;;;;5024292;28;20041;-88
2021/05/21 20:16:57;;;;;;;3.95;1.10;;;26.40;27.50;;;;;;5023951;28;20396;-90
2021/05/21 20:19:26;;;;;;;5.32;1.10;;;26.40;27.40;;;;;;5040734;28;20037;-89
2021/05/21 20:21:53;;;;;;;2.42;1.30;;;26.40;27.30;;;;;;5041351;28;20495;-91
2021/05/21 20:24:19;;;;;;;5.55;1.27;;;26.50;27.30;;;;;;4959280;28;20533;-89
2021/05/21 20:26:46;;;;;;;4.03;1.40;;;26.50;27.10;;;;;;4975965;28;20099;-89
2021/05/21 20:29:25;;;;;;;5.10;1.20;;;26.50;27.10;;;;;;4993515;28;20060;-88
2021/05/21 20:40:10;;;;;;;5.63;1.38;;;26.60;26.90;;;;;;4964694;28;20045;-90
2021/05/21 21:04:09;;;;;;;5.28;1.17;;;26.70;26.70;;;;;;4992913;28;20534;-90
2021/05/21 21:23:25;;;;;;;7.13;1.02;;;26.50;27.10;;;;;;5054763;28;20552;-91
2021/05/21 21:26:17;;;;;;;7.70;1.10;;;26.40;27.10;;;;;;5049885;28;20035;-90
2021/05/21 21:31:39;;;;;;;5.07;1.23;;;26.40;27.30;;;;;;5053012;28;20055;-90
2021/05/21 21:52:59;;;;;;;1.33;1.00;;;26.10;27.70;;;;;;5055305;28;20045;-89
2021/05/21 22:03:39;;;;;;;2.42;0.95;;;26.00;27.90;;;;;;5075446;28;20031;-88
2021/05/21 22:24:36;;;;;;;3.22;1.67;;;26.10;28.00;;;;;;5008738;28;20025;-91
2021/05/21 22:27:03;;;;;;;1.55;0.88;;;26.10;28.10;;;;;;4976562;28;20074;-88
2021/05/21 22:29:29;;;;;;;1.88;1.15;;;26.10;28.00;;;;;;5008252;28;20033;-89
2021/05/21 22:31:55;;;;;;;1.50;0.70;;;26.10;28.10;;;;;;4991410;28;20054;-88
2021/05/21 22:34:21;;;;;;;;;;;26.10;28.00;;;;;;5007387;28;20032;-89
2021/05/21 22:36:48;;;;;;;1.98;0.90;;;26.10;28.20;;;;;;4977660;28;20019;-89
2021/05/21 22:39:15;;;;;;;0.90;0.90;;;26.10;28.10;;;;;;4973570;28;20052;-88
2021/05/21 22:41:45;;;;;;;1.60;0.82;;;26.10;28.20;;;;;;4978633;28;20041;-89
2021/05/21 22:44:19;;;;;;;1.95;1.00;;;26.00;28.20;;;;;;4993894;28;20037;-89
2021/05/21 22:46:46;;;;;;;3.60;1.05;;;26.00;28.20;;;;;;4975105;28;20098;-89
2021/05/21 22:49:12;;;;;;;5.18;1.13;;;25.90;28.30;;;;;;5023298;28;20070;-88
2021/05/21 22:51:39;;;;;;;3.70;1.27;;;25.90;28.50;;;;;;5006073;28;20124;-88
2021/05/21 22:54:08;;;;;;;4.57;1.10;;;25.80;28.60;;;;;;5022524;28;20037;-89
2021/05/21 22:56:36;;;;;;;1.60;1.17;;;25.80;28.60;;;;;;5021516;28;20029;-90
2021/05/21 22:59:03;;;;;;;4.75;1.00;;;25.80;28.60;;;;;;4986872;28;20029;-89
2021/05/21 23:01:30;;;;;;;3.28;1.00;;;25.80;28.70;;;;;;4973335;28;20037;-89
2021/05/21 23:03:56;;;;;;;2.60;0.90;;;25.80;28.70;;;;;;4987931;28;20426;-88
2021/05/21 23:06:22;;;;;;;;;;;25.80;28.70;;;;;;4956753;28;20045;-89
2021/05/21 23:08:48;;;;;;;2.13;1.00;;;25.80;28.90;;;;;;4972542;28;19936;-91
2021/05/21 23:11:15;;;;;;;2.40;0.70;;;25.80;28.90;;;;;;4955424;28;20044;-90
2021/05/21 23:13:41;;;;;;;2.58;0.93;;;25.70;28.80;;;;;;4986711;28;20108;-90
2021/05/21 23:16:07;;;;;;;;;;;25.70;28.90;;;;;;4939664;28;20048;-90
2021/05/21 23:18:34;;;;;;;1.48;1.10;;;25.70;29.00;;;;;;4987974;28;19929;-88
2021/05/21 23:21:00;;;;;;;2.58;0.90;;;25.70;28.90;;;;;;4987608;28;20074;-88
2021/05/21 23:23:26;;;;;;;;;;;25.70;28.90;;;;;;5004141;28;20052;-90
2021/05/21 23:25:53;;;;;;;0.82;0.82;;;25.70;29.10;;;;;;4986628;28;19939;-90
2021/05/21 23:28:19;;;;;;;;;;;25.70;29.00;;;;;;4988518;28;20033;-88
2021/05/21 23:30:46;;;;;;;3.83;1.50;;;25.70;29.00;;;;;;4969441;28;20482;-88
2021/05/21 23:33:12;;;;;;;1.60;1.50;;;25.70;29.00;;;;;;4959748;28;20044;-90
2021/05/21 23:35:38;;;;;;;1.73;1.50;;;25.70;29.00;;;;;;4957889;28;20056;-89
2021/05/21 23:38:04;;;;;;;;;;;25.60;29.00;;;;;;4942464;28;20052;-90
2021/05/21 23:40:31;;;;;;;2.33;1.42;;;25.60;29.10;;;;;;4973342;28;19929;-90
2021/05/21 23:42:58;;;;;;;1.45;1.38;;;25.60;29.10;;;;;;4957377;28;20037;-90
2021/05/21 23:45:24;;;;;;;2.60;1.83;;;25.60;29.20;;;;;;4958547;28;20034;-90
2021/05/21 23:47:50;;;;;;;2.10;1.60;;;25.60;29.30;;;;;;4925227;28;20423;-90
2021/05/21 23:50:17;;;;;;;3.28;1.63;;;25.50;29.30;;;;;;4957263;28;20056;-89
2021/05/21 23:52:43;;;;;;;3.33;1.80;;;25.50;29.40;;;;;;4990065;28;20048;-90
2021/05/21 23:55:11;;;;;;;1.30;1.30;;;25.50;29.40;;;;;;4989511;28;20049;-89
2021/05/21 23:57:37;;;;;;;4.57;1.70;;;25.50;29.40;;;;;;4989095;28;20667;-89
